12:59
Airports
History
Links
Donate
Help keep this website running!
PayPal
Bitcoin
Information on this page is community maintained and may be outdated or inaccurate and is intended for reference only or PC simulator navigating.
Always use approved charts for navigating.
VIRB
FURSATGANJ
FURSATGANJ (VIRB)
Fursatganj, Uttar Pradesh, India (229302)
(C)
Lat/Lng:26° 14' 54.56" N / 81° 22' 49.81" E
26.248489 / 81.380504
Elevation:360'ft 110mMSL
ID / ICAO:VIRB
Runways:1
Longest:(09-27) 1,722.0m 5,650ft Asphalt
Controlled:Yes
Distance To
Airport ID:
Airport Radio Frequencies
Tower: 122.5
Nearby VORs <50NM
Nearby NDBs
Nearby WeatherUpdated 07-23-17 12:30 GMT
Nearby weather at VILK, LUCKNOW located 46.6 nautical miles from VIRB
Altimeter: 29.44
Visibility: 1.9 statute miles
Wind: 3 knots (090°)
Temp: 30°c 86°f
Humidity: 89.1%

METAR: VILK 231230Z 09003KT 3000 -DZ SCT020 FEW030CB BKN100 30/28 Q0997 NOSIG

(Powered by phpweather)
Runway 09 / 27
Dimensions:1722 x 42.1m 5650' x 138'ft
Surface:Asphalt
Runway 09 [A]Runway 27 [B]
Heading:089°TH 269°TH
Lat:
Lng:
26° 14' 54.39"N
81° 22' 18.78"E
26° 14' 54.73"N
81° 23' 20.85"E
User Notes and Comments
Google Map
Nearby Airports
(C) LUCKNOW 46.6 NM
VILK (WX) NW 319°
(U) BAKSHI KA TALAB 59.3 NM
VIBL NNW 329°
(C) ALLAHABAD 60.2 NM
VIAL (WX) SSE 158°
(C) KANPUR CHAKERI 60.8 NM
VICX (WX) W 280°
(C) KANPUR 64.3 NM
VIKA W 281°
(U) KALYANPUR 73.5 NM
VI75 WNW 284°
(U) AKBARPUR 74.8 NM
VI90 E 79°
VFR Chart
Flight Planning at SkyVector.com